Time;durP1;ratioP1;P1;durP2;ratioP2;P2;SDS_P1;SDS_P2;PMS_P1;PMS_P2;Temp;Humidity;BMP_temperature;BMP_pressure;BME280_temperature;BME280_humidity;BME280_pressure;Samples;Min_cycle;Max_cycle;Signal;HPM_P1;HPM_P2
2021/10/14 00:02:18;;;;;;;30.42;16.73;;;8.90;99.90;;;;;;5046560;28;20161;-71
2021/10/14 00:04:45;;;;;;;38.97;19.95;;;9.00;99.90;;;;;;5062773;28;20040;-72
2021/10/14 00:07:12;;;;;;;40.20;22.48;;;9.00;99.90;;;;;;5068864;28;20047;-72
2021/10/14 00:09:39;;;;;;;46.13;23.02;;;9.00;99.90;;;;;;5072449;28;20046;-72
2021/10/14 00:12:06;;;;;;;44.22;24.00;;;9.00;99.90;;;;;;5079295;28;20079;-72
2021/10/14 00:14:33;;;;;;;41.13;24.58;;;9.00;99.90;;;;;;5032858;28;20198;-72
2021/10/14 00:16:59;;;;;;;48.10;27.25;;;9.10;99.90;;;;;;5064728;28;20304;-72
2021/10/14 00:19:26;;;;;;;51.65;28.48;;;9.10;99.90;;;;;;5029305;28;20121;-73
2021/10/14 00:21:53;;;;;;;43.88;27.63;;;9.00;99.90;;;;;;5031618;28;20155;-72
2021/10/14 00:24:20;;;;;;;48.45;28.80;;;9.00;99.90;;;;;;5065397;28;20137;-72
2021/10/14 00:26:47;;;;;;;44.05;25.85;;;9.10;99.90;;;;;;5030724;28;20112;-72
2021/10/14 00:29:14;;;;;;;43.22;27.92;;;9.10;99.90;;;;;;5030675;28;20447;-71
2021/10/14 00:31:41;;;;;;;50.47;31.35;;;9.00;99.90;;;;;;5064185;28;20044;-72
2021/10/14 00:34:08;;;;;;;51.40;30.65;;;9.00;99.90;;;;;;5030316;28;20062;-71
2021/10/14 00:36:35;;;;;;;52.30;30.45;;;9.00;99.90;;;;;;5046853;28;20044;-71
2021/10/14 00:39:02;;;;;;;53.47;31.58;;;9.00;99.90;;;;;;5048876;28;20127;-69
2021/10/14 00:41:29;;;;;;;53.78;32.08;;;8.90;99.90;;;;;;5055334;28;20055;-70
2021/10/14 00:43:57;;;;;;;51.28;30.88;;;8.90;99.90;;;;;;5064644;28;20563;-70
2021/10/14 00:46:25;;;;;;;53.25;30.38;;;8.80;99.90;;;;;;5046302;28;20048;-71
2021/10/14 00:48:52;;;;;;;58.35;34.92;;;8.80;99.90;;;;;;5046944;28;20048;-71
2021/10/14 00:51:20;;;;;;;57.22;36.00;;;8.80;99.90;;;;;;5038043;28;20119;-70
2021/10/14 00:53:47;;;;;;;72.95;40.92;;;8.80;99.90;;;;;;5048145;28;20051;-71
2021/10/14 00:56:16;;;;;;;74.70;41.65;;;8.80;99.90;;;;;;5038508;28;20067;-71
2021/10/14 00:58:43;;;;;;;63.33;36.42;;;8.80;99.90;;;;;;5062348;28;20048;-72
2021/10/14 01:01:10;;;;;;;65.30;40.25;;;8.90;99.90;;;;;;5044008;28;20039;-70
2021/10/14 01:03:37;;;;;;;59.58;36.30;;;8.90;99.90;;;;;;5047613;28;20050;-70
2021/10/14 01:06:04;;;;;;;64.57;40.85;;;8.80;99.90;;;;;;5069052;28;20051;-70
2021/10/14 01:08:31;;;;;;;72.93;40.47;;;8.80;99.90;;;;;;5083750;28;20131;-71
2021/10/14 01:10:58;;;;;;;72.63;38.75;;;8.80;99.90;;;;;;5054478;28;20060;-70
2021/10/14 01:13:25;;;;;;;71.72;43.40;;;8.80;99.90;;;;;;5063163;28;20056;-71
2021/10/14 01:15:51;;;;;;;80.90;42.60;;;8.70;99.90;;;;;;5029552;28;20058;-71
2021/10/14 01:18:18;;;;;;;74.30;44.38;;;8.70;99.90;;;;;;5046241;28;20710;-72
2021/10/14 01:20:45;;;;;;;73.07;42.60;;;8.70;99.90;;;;;;5046451;28;20044;-70
2021/10/14 01:23:12;;;;;;;71.40;42.67;;;8.70;99.90;;;;;;5046875;28;20070;-70
2021/10/14 01:25:44;;;;;;;77.75;46.45;;;8.70;99.90;;;;;;5043733;28;20058;-70
2021/10/14 01:28:10;;;;;;;74.85;42.42;;;8.70;99.90;;;;;;5032655;28;20138;-71
2021/10/14 01:30:37;;;;;;;81.18;45.30;;;8.70;99.90;;;;;;5046631;28;20594;-70
2021/10/14 01:33:18;;;;;;;83.28;45.92;;;8.70;99.90;;;;;;5080978;28;20044;-71
2021/10/14 01:35:45;;;;;;;81.03;46.55;;;8.70;99.90;;;;;;5062771;28;20086;-70
2021/10/14 01:38:12;;;;;;;50.80;30.30;;;8.70;99.90;;;;;;5060728;28;20124;-70
2021/10/14 01:40:39;;;;;;;54.78;33.90;;;8.60;99.90;;;;;;5044052;28;20142;-70
2021/10/14 01:43:15;;;;;;;61.67;36.30;;;8.60;99.90;;;;;;5075595;28;20097;-71
2021/10/14 01:45:42;;;;;;;46.80;27.63;;;8.60;99.90;;;;;;5029546;28;20492;-70
2021/10/14 01:48:09;;;;;;;57.97;34.97;;;8.60;99.90;;;;;;5062494;28;20052;-70
2021/10/14 01:50:36;;;;;;;51.22;30.42;;;8.60;99.90;;;;;;5045527;28;20454;-71
2021/10/14 01:53:02;;;;;;;58.17;30.42;;;8.60;99.90;;;;;;5063563;28;20055;-71
2021/10/14 01:55:29;;;;;;;46.95;28.20;;;8.60;99.90;;;;;;5028762;28;20047;-71
2021/10/14 01:57:56;;;;;;;57.30;34.58;;;8.60;99.90;;;;;;5041542;28;20055;-71
2021/10/14 02:00:23;;;;;;;58.58;35.13;;;8.50;99.90;;;;;;5063065;28;22800;-71
2021/10/14 02:02:50;;;;;;;61.88;36.35;;;8.50;99.90;;;;;;5026028;28;20055;-72
2021/10/14 02:05:17;;;;;;;66.55;35.67;;;8.50;99.90;;;;;;5044249;28;20071;-72
2021/10/14 02:07:44;;;;;;;70.75;37.72;;;8.60;99.90;;;;;;5063104;28;20101;-72
2021/10/14 02:10:11;;;;;;;72.18;39.97;;;8.50;99.90;;;;;;5028363;28;20032;-73
2021/10/14 02:12:38;;;;;;;64.78;37.83;;;8.60;99.90;;;;;;5041738;28;20047;-72
2021/10/14 02:15:06;;;;;;;71.53;39.25;;;8.50;99.90;;;;;;5070155;28;20040;-71
2021/10/14 02:17:33;;;;;;;83.85;42.75;;;8.50;99.90;;;;;;5060772;28;20079;-71
2021/10/14 02:19:59;;;;;;;87.30;43.42;;;8.60;99.90;;;;;;5043708;28;20047;-71
2021/10/14 02:22:26;;;;;;;100.78;47.85;;;8.60;99.90;;;;;;5069547;28;20063;-70
2021/10/14 02:24:53;;;;;;;82.03;40.88;;;8.60;99.90;;;;;;5060669;28;20040;-70
2021/10/14 02:27:20;;;;;;;91.20;43.30;;;8.60;99.90;;;;;;5059231;28;20109;-70
2021/10/14 02:29:47;;;;;;;76.72;39.60;;;8.60;99.90;;;;;;5028028;28;20135;-70
2021/10/14 02:32:14;;;;;;;81.20;40.53;;;8.60;99.90;;;;;;5060640;28;20048;-70
2021/10/14 02:34:41;;;;;;;74.18;39.63;;;8.60;99.90;;;;;;5078761;28;20829;-70
2021/10/14 02:37:07;;;;;;;71.18;38.80;;;8.60;99.90;;;;;;5043636;28;20043;-70
2021/10/14 02:39:34;;;;;;;73.30;40.78;;;8.60;99.90;;;;;;5060785;28;20135;-71
2021/10/14 02:42:02;;;;;;;76.70;41.67;;;8.60;99.90;;;;;;5058986;28;20048;-71
2021/10/14 02:44:29;;;;;;;71.97;40.33;;;8.60;99.90;;;;;;5030690;28;20097;-71
2021/10/14 02:46:56;;;;;;;82.10;41.67;;;8.50;99.90;;;;;;5078930;28;20407;-71
2021/10/14 02:49:23;;;;;;;82.53;42.80;;;8.60;99.90;;;;;;5026416;28;20563;-70
2021/10/14 02:51:49;;;;;;;79.03;40.92;;;8.60;99.90;;;;;;5043749;28;20126;-70
2021/10/14 02:54:17;;;;;;;79.68;39.28;;;8.60;99.90;;;;;;5044724;28;20083;-70
2021/10/14 02:56:44;;;;;;;80.60;42.00;;;8.50;99.90;;;;;;5056205;28;20228;-70
2021/10/14 02:59:11;;;;;;;71.28;37.53;;;8.60;99.90;;;;;;5043671;28;20070;-70
2021/10/14 03:01:38;;;;;;;79.45;39.20;;;8.50;99.90;;;;;;5058060;28;20048;-70
2021/10/14 03:04:06;;;;;;;73.20;37.42;;;8.50;99.90;;;;;;5060113;28;20043;-70
2021/10/14 03:06:33;;;;;;;93.22;42.30;;;8.50;99.90;;;;;;5026807;28;20568;-71
2021/10/14 03:09:00;;;;;;;75.70;39.67;;;8.50;99.90;;;;;;5059699;28;20043;-71
2021/10/14 03:11:27;;;;;;;82.75;41.90;;;8.50;99.90;;;;;;5039806;28;20075;-70
2021/10/14 03:13:54;;;;;;;89.90;45.50;;;8.50;99.90;;;;;;5059950;28;20520;-70
2021/10/14 03:16:21;;;;;;;109.07;49.35;;;8.50;99.90;;;;;;5059371;28;20050;-68
2021/10/14 03:18:52;;;;;;;115.65;51.60;;;8.40;99.90;;;;;;5025824;28;20067;-70
2021/10/14 03:21:19;;;;;;;138.60;56.08;;;8.40;99.90;;;;;;5060188;28;20066;-70
2021/10/14 03:23:46;;;;;;;115.57;50.17;;;8.50;99.90;;;;;;5042935;28;20109;-70
2021/10/14 03:26:13;;;;;;;119.80;51.97;;;8.50;99.90;;;;;;5041477;28;20127;-70
2021/10/14 03:28:40;;;;;;;110.38;48.30;;;8.40;99.90;;;;;;5059115;28;20157;-70
2021/10/14 03:31:07;;;;;;;106.28;45.60;;;8.40;99.90;;;;;;5043949;28;20123;-71
2021/10/14 03:33:34;;;;;;;112.55;48.53;;;8.40;99.90;;;;;;5042897;28;20446;-71
2021/10/14 03:36:01;;;;;;;119.85;47.38;;;8.40;99.90;;;;;;5043304;28;20085;-71
2021/10/14 03:38:28;;;;;;;124.47;50.17;;;8.40;99.90;;;;;;5042508;28;20376;-71
2021/10/14 03:40:55;;;;;;;112.18;47.20;;;8.40;99.90;;;;;;5039905;28;20421;-70
2021/10/14 03:43:22;;;;;;;89.97;39.08;;;8.40;99.90;;;;;;5042137;28;20052;-71
2021/10/14 03:45:49;;;;;;;110.38;43.47;;;8.30;99.90;;;;;;5042704;28;20115;-71
2021/10/14 03:48:16;;;;;;;103.93;42.60;;;8.30;99.90;;;;;;5059333;28;20052;-71
2021/10/14 03:50:43;;;;;;;114.90;45.05;;;8.30;99.90;;;;;;5041715;28;20105;-71
2021/10/14 03:53:10;;;;;;;113.53;43.58;;;8.30;99.90;;;;;;5060187;28;20140;-71
2021/10/14 03:55:37;;;;;;;126.18;46.20;;;8.30;99.90;;;;;;5042103;28;20055;-71
2021/10/14 03:58:05;;;;;;;127.65;45.60;;;8.30;99.90;;;;;;5023510;28;20048;-71
2021/10/14 04:00:32;;;;;;;127.80;45.97;;;8.20;99.90;;;;;;5058744;28;20052;-71
2021/10/14 04:02:59;;;;;;;128.82;47.17;;;8.30;99.90;;;;;;5041959;28;20086;-71
2021/10/14 04:05:26;;;;;;;123.22;44.20;;;8.30;99.90;;;;;;5026024;28;20369;-71
2021/10/14 04:07:53;;;;;;;137.43;48.38;;;8.40;99.90;;;;;;5043437;28;20585;-71
2021/10/14 04:10:20;;;;;;;141.75;50.08;;;8.40;99.90;;;;;;5032075;28;20127;-71
2021/10/14 04:12:47;;;;;;;130.23;47.38;;;8.40;99.90;;;;;;5054774;28;20602;-71
2021/10/14 04:15:14;;;;;;;144.80;49.13;;;8.40;99.90;;;;;;5028915;28;20647;-71
2021/10/14 04:17:41;;;;;;;140.73;46.60;;;8.40;99.90;;;;;;5029833;28;20062;-71
2021/10/14 04:20:08;;;;;;;148.23;49.60;;;8.40;99.90;;;;;;5029312;28;20546;-70
2021/10/14 04:22:35;;;;;;;136.00;48.80;;;8.40;99.90;;;;;;5048130;28;20050;-70
2021/10/14 04:25:04;;;;;;;134.43;46.33;;;8.40;99.90;;;;;;5063967;28;20117;-71
2021/10/14 04:27:31;;;;;;;139.40;48.03;;;8.40;99.90;;;;;;5080648;28;20044;-70
2021/10/14 04:29:57;;;;;;;148.18;50.17;;;8.50;99.90;;;;;;5063482;28;20070;-70
2021/10/14 04:32:24;;;;;;;153.50;50.78;;;8.50;99.90;;;;;;5063944;28;20055;-70
2021/10/14 04:34:51;;;;;;;145.15;50.78;;;8.50;99.90;;;;;;5027674;28;20131;-70
2021/10/14 04:37:19;;;;;;;169.85;54.35;;;8.50;99.90;;;;;;5046799;28;20469;-70
2021/10/14 04:39:45;;;;;;;173.70;53.92;;;8.50;99.90;;;;;;5045901;28;20304;-70
2021/10/14 04:42:12;;;;;;;152.38;53.20;;;8.40;99.90;;;;;;5087311;28;20149;-70
2021/10/14 04:44:39;;;;;;;156.45;51.33;;;8.40;99.90;;;;;;5046345;28;20052;-71
2021/10/14 04:47:06;;;;;;;162.95;51.85;;;8.40;99.90;;;;;;5047451;28;20144;-71
2021/10/14 04:49:33;;;;;;;139.00;47.50;;;8.40;99.90;;;;;;5063234;28;20044;-70
2021/10/14 04:52:01;;;;;;;171.88;55.33;;;8.40;99.90;;;;;;5047194;28;20128;-71
2021/10/14 04:54:28;;;;;;;151.77;52.40;;;8.40;99.90;;;;;;5047013;28;20050;-70
2021/10/14 04:56:55;;;;;;;153.48;54.40;;;8.40;99.90;;;;;;5078109;28;20044;-71
2021/10/14 04:59:22;;;;;;;176.85;52.95;;;8.50;99.90;;;;;;5063836;28;20046;-69
2021/10/14 05:01:49;;;;;;;175.68;53.20;;;8.40;99.90;;;;;;5045145;28;20147;-71
2021/10/14 05:04:16;;;;;;;168.70;55.72;;;8.40;99.90;;;;;;5030582;28;20048;-70
2021/10/14 05:06:43;;;;;;;189.90;59.45;;;8.40;99.90;;;;;;5045625;28;20048;-71
2021/10/14 05:09:10;;;;;;;174.63;60.92;;;8.40;99.90;;;;;;5045655;28;20048;-70
2021/10/14 05:11:36;;;;;;;182.15;60.38;;;8.40;99.90;;;;;;5043576;28;20058;-71
2021/10/14 05:14:03;;;;;;;172.45;57.72;;;8.50;99.90;;;;;;5081575;28;20486;-71
2021/10/14 05:16:32;;;;;;;185.25;61.58;;;8.50;99.90;;;;;;5046611;28;20511;-70
2021/10/14 05:19:00;;;;;;;185.10;59.20;;;8.50;99.90;;;;;;5063727;28;20051;-71
2021/10/14 05:21:28;;;;;;;182.38;59.40;;;8.60;99.90;;;;;;5063648;28;20051;-72
2021/10/14 05:23:59;;;;;;;173.20;59.92;;;8.60;99.90;;;;;;5070342;28;20139;-71
2021/10/14 05:26:30;;;;;;;186.65;58.58;;;8.50;99.90;;;;;;5063557;28;20527;-72
2021/10/14 05:29:00;;;;;;;188.18;60.13;;;8.50;99.90;;;;;;5045931;28;20220;-71
2021/10/14 05:31:27;;;;;;;178.57;59.95;;;8.50;99.90;;;;;;5046624;28;20052;-71
2021/10/14 05:33:54;;;;;;;177.05;60.97;;;8.50;99.90;;;;;;5080861;28;20131;-71
2021/10/14 05:36:22;;;;;;;188.60;61.58;;;8.50;99.90;;;;;;5043811;28;20250;-70
2021/10/14 05:38:49;;;;;;;202.23;67.35;;;8.50;99.90;;;;;;5045937;28;20143;-71
2021/10/14 05:41:16;;;;;;;195.68;67.80;;;8.50;99.90;;;;;;5048554;28;20048;-71
2021/10/14 05:43:43;;;;;;;194.90;64.95;;;8.60;99.90;;;;;;5055554;28;20536;-71
2021/10/14 05:46:10;;;;;;;213.38;68.63;;;8.60;99.90;;;;;;5041853;28;20496;-71
2021/10/14 05:48:38;;;;;;;203.98;64.00;;;8.60;99.90;;;;;;5061251;28;20067;-72
2021/10/14 05:51:05;;;;;;;230.55;71.38;;;8.60;99.90;;;;;;5062375;28;20055;-72
2021/10/14 05:53:32;;;;;;;242.43;73.72;;;8.60;99.90;;;;;;5046758;28;20629;-71
2021/10/14 05:55:59;;;;;;;242.90;68.78;;;8.70;99.90;;;;;;5042793;28;20594;-72
2021/10/14 05:58:26;;;;;;;279.67;73.82;;;8.60;99.90;;;;;;5045708;28;20105;-71
2021/10/14 06:00:52;;;;;;;283.90;76.25;;;8.60;99.90;;;;;;5043537;28;20052;-71
2021/10/14 06:03:20;;;;;;;293.00;76.28;;;8.70;99.90;;;;;;5062707;28;20070;-72
2021/10/14 06:05:46;;;;;;;334.63;78.00;;;8.60;99.90;;;;;;5044854;28;20101;-72
2021/10/14 06:08:13;;;;;;;342.23;81.10;;;8.70;99.90;;;;;;5045250;28;20673;-71
2021/10/14 06:10:40;;;;;;;387.30;84.32;;;8.70;99.90;;;;;;5041793;28;20167;-71
2021/10/14 06:13:07;;;;;;;372.67;85.88;;;8.80;99.90;;;;;;5068406;28;20044;-71
2021/10/14 06:15:34;;;;;;;407.98;89.57;;;8.80;99.90;;;;;;5032571;28;20052;-72
2021/10/14 06:18:01;;;;;;;467.35;91.95;;;8.80;99.90;;;;;;5035052;28;20144;-71
2021/10/14 06:20:28;;;;;;;429.60;90.60;;;8.90;99.90;;;;;;5050312;28;20515;-72
2021/10/14 06:22:55;;;;;;;452.13;91.60;;;8.90;99.90;;;;;;5046386;28;20591;-71
2021/10/14 06:25:22;;;;;;;456.77;91.82;;;8.80;99.90;;;;;;5044531;28;20462;-73
2021/10/14 06:27:48;;;;;;;417.42;90.40;;;8.90;99.90;;;;;;5029178;28;20446;-71
2021/10/14 06:30:15;;;;;;;479.75;95.57;;;8.90;99.90;;;;;;5044769;28;20575;-72
2021/10/14 06:32:42;;;;;;;492.17;95.78;;;8.90;99.90;;;;;;5080373;28;20064;-71
2021/10/14 06:35:09;;;;;;;408.95;82.53;;;8.90;99.90;;;;;;5044905;28;20170;-71
2021/10/14 06:37:36;;;;;;;456.48;91.60;;;8.90;99.90;;;;;;5046478;28;20526;-71
2021/10/14 06:40:04;;;;;;;410.77;88.78;;;8.90;99.90;;;;;;5032384;28;20078;-71
2021/10/14 06:42:31;;;;;;;458.77;94.43;;;9.00;99.90;;;;;;5026575;28;20115;-72
2021/10/14 06:44:58;;;;;;;512.22;94.65;;;9.00;99.90;;;;;;5045178;28;20085;-72
2021/10/14 06:47:25;;;;;;;377.00;84.05;;;9.00;99.90;;;;;;5045507;28;20048;-71
2021/10/14 06:49:52;;;;;;;391.40;86.00;;;9.00;99.90;;;;;;5028654;28;20040;-72
2021/10/14 06:52:19;;;;;;;389.60;87.60;;;9.00;99.90;;;;;;5045510;28;20071;-72
2021/10/14 06:54:45;;;;;;;356.77;79.93;;;9.10;99.90;;;;;;5045711;28;20181;-71
2021/10/14 06:57:12;;;;;;;336.40;76.20;;;9.10;99.90;;;;;;5042355;28;20529;-71
2021/10/14 06:59:39;;;;;;;291.55;70.18;;;9.10;99.90;;;;;;5064751;28;20066;-71
2021/10/14 07:02:06;;;;;;;282.33;68.03;;;9.10;99.90;;;;;;5036692;28;20040;-71
2021/10/14 07:04:33;;;;;;;230.98;59.88;;;9.20;99.90;;;;;;5060222;28;20044;-71
2021/10/14 07:07:00;;;;;;;215.20;54.83;;;9.20;99.90;;;;;;5061577;28;20048;-72
2021/10/14 07:09:27;;;;;;;175.00;51.38;;;9.20;99.90;;;;;;5046105;28;20081;-71
2021/10/14 07:12:00;;;;;;;149.50;44.88;;;9.20;99.90;;;;;;5027739;28;20044;-73
2021/10/14 07:14:27;;;;;;;153.68;47.13;;;9.20;99.90;;;;;;5028311;28;20248;-73
2021/10/14 07:16:54;;;;;;;179.88;50.88;;;9.30;99.90;;;;;;5062434;28;20047;-73
2021/10/14 07:19:21;;;;;;;147.00;45.60;;;9.30;99.90;;;;;;5099102;28;20082;-73
2021/10/14 07:21:48;;;;;;;158.68;46.53;;;9.30;99.90;;;;;;5059217;28;20496;-72
2021/10/14 07:24:17;;;;;;;151.18;44.38;;;9.40;99.90;;;;;;5063444;28;20071;-71
2021/10/14 07:26:44;;;;;;;143.55;43.45;;;9.40;99.90;;;;;;5043247;28;20181;-71
2021/10/14 07:29:11;;;;;;;153.35;44.95;;;9.40;99.90;;;;;;5062463;28;20446;-72
2021/10/14 07:31:40;;;;;;;140.98;44.05;;;9.50;99.90;;;;;;5062022;28;20083;-73
2021/10/14 07:34:07;;;;;;;158.38;44.65;;;9.50;99.90;;;;;;5045334;28;20059;-73
2021/10/14 07:36:34;;;;;;;174.75;47.35;;;9.50;99.90;;;;;;5045546;28;20075;-72
2021/10/14 07:39:02;;;;;;;181.77;50.17;;;9.50;99.90;;;;;;5066345;28;20531;-71
2021/10/14 07:41:30;;;;;;;210.13;52.83;;;9.50;99.90;;;;;;5063051;28;20139;-72
2021/10/14 07:43:57;;;;;;;189.93;51.90;;;9.60;99.90;;;;;;5084410;28;20059;-73
2021/10/14 07:46:24;;;;;;;180.77;48.88;;;9.60;99.90;;;;;;5048497;28;20044;-71
2021/10/14 07:48:51;;;;;;;157.55;44.30;;;9.60;99.90;;;;;;5030758;28;20199;-71
2021/10/14 07:51:18;;;;;;;137.07;41.72;;;9.70;99.90;;;;;;5065227;28;20056;-71
2021/10/14 07:53:45;;;;;;;128.00;39.55;;;9.70;99.90;;;;;;5048532;28;20056;-73
2021/10/14 07:56:12;;;;;;;91.80;32.72;;;9.70;99.90;;;;;;5047694;28;20248;-71
2021/10/14 07:58:39;;;;;;;85.50;32.60;;;9.70;99.90;;;;;;5031834;28;20062;-71
2021/10/14 08:01:10;;;;;;;93.95;32.20;;;9.70;99.90;;;;;;5046928;28;20040;-73
2021/10/14 08:03:38;;;;;;;67.75;25.83;;;9.80;99.90;;;;;;5048262;28;20150;-74
2021/10/14 08:06:05;;;;;;;70.65;26.33;;;9.90;99.90;;;;;;5058095;28;20508;-73
2021/10/14 08:08:32;;;;;;;77.50;27.52;;;9.90;99.90;;;;;;5051830;28;20138;-74
2021/10/14 08:10:59;;;;;;;59.28;24.88;;;9.90;99.90;;;;;;5078235;28;20047;-73
2021/10/14 08:13:26;;;;;;;56.55;24.15;;;9.90;99.90;;;;;;5082962;28;20154;-72
2021/10/14 08:15:53;;;;;;;59.05;23.73;;;9.80;99.90;;;;;;5081526;28;20519;-74
2021/10/14 08:18:22;;;;;;;47.45;23.40;;;9.90;99.90;;;;;;5082221;28;20135;-74
2021/10/14 08:20:50;;;;;;;59.53;24.83;;;9.90;99.90;;;;;;5064524;28;20044;-73
2021/10/14 08:23:18;;;;;;;77.43;27.73;;;9.90;99.90;;;;;;5050589;28;20071;-74
2021/10/14 08:25:45;;;;;;;76.20;30.30;;;9.90;99.90;;;;;;5047744;28;20492;-75
2021/10/14 08:28:12;;;;;;;121.13;38.67;;;9.90;99.90;;;;;;5065321;28;20067;-73
2021/10/14 08:30:42;;;;;;;151.38;44.70;;;10.00;99.90;;;;;;5048801;28;20040;-74
2021/10/14 08:33:10;;;;;;;166.23;50.95;;;10.00;99.90;;;;;;5046731;28;20140;-72
2021/10/14 08:35:37;;;;;;;163.25;53.00;;;10.00;99.90;;;;;;5063239;28;20097;-73
2021/10/14 08:38:06;;;;;;;184.73;53.15;;;10.00;99.90;;;;;;5047467;28;20135;-74
2021/10/14 08:40:34;;;;;;;197.38;57.72;;;10.00;99.90;;;;;;5079988;28;20551;-72
2021/10/14 08:43:14;;;;;;;174.48;53.28;;;10.00;99.90;;;;;;5031737;28;20403;-74
2021/10/14 08:45:44;;;;;;;184.27;54.42;;;10.10;99.90;;;;;;5046163;28;20048;-72
2021/10/14 08:48:12;;;;;;;129.85;43.33;;;10.10;99.90;;;;;;5048219;28;20040;-72
2021/10/14 08:50:42;;;;;;;125.63;42.40;;;10.20;99.90;;;;;;5048586;28;20044;-72
2021/10/14 08:53:10;;;;;;;139.82;44.80;;;10.20;99.90;;;;;;5066902;28;20078;-74
2021/10/14 08:55:38;;;;;;;129.55;44.00;;;10.20;99.90;;;;;;5046791;28;20074;-73
2021/10/14 08:58:09;;;;;;;154.68;50.47;;;10.10;99.90;;;;;;5047439;28;20040;-73
2021/10/14 09:00:40;;;;;;;195.55;56.47;;;10.20;99.90;;;;;;5047533;28;20131;-73
2021/10/14 09:03:36;;;;;;;193.63;58.55;;;10.20;99.90;;;;;;5047517;28;20051;-72
2021/10/14 09:06:08;;;;;;;138.07;46.33;;;10.20;99.90;;;;;;5028083;28;20044;-72
2021/10/14 09:08:40;;;;;;;136.43;48.92;;;10.30;99.90;;;;;;5030920;28;20083;-73
2021/10/14 09:11:08;;;;;;;91.00;34.70;;;10.30;99.90;;;;;;5044944;28;20059;-74
2021/10/14 09:13:36;;;;;;;96.80;38.25;;;10.30;99.90;;;;;;5062654;28;20140;-73
2021/10/14 09:16:39;;;;;;;89.88;36.15;;;10.30;99.90;;;;;;5044980;28;20520;-72
2021/10/14 09:19:23;;;;;;;89.90;38.75;;;10.40;99.90;;;;;;4981099;28;20115;-71
2021/10/14 09:22:00;;;;;;;95.32;38.00;;;10.50;99.90;;;;;;5057163;28;20044;-71
2021/10/14 09:24:35;;;;;;;77.93;30.83;;;10.50;99.90;;;;;;5063667;28;20052;-70
2021/10/14 09:27:06;;;;;;;72.38;31.52;;;10.50;99.90;;;;;;5059443;28;20043;-71
2021/10/14 09:29:34;;;;;;;93.05;35.25;;;10.50;99.90;;;;;;5047024;28;20703;-72
2021/10/14 09:32:15;;;;;;;96.82;40.40;;;10.50;99.90;;;;;;5058220;28;20123;-71
2021/10/14 09:34:49;;;;;;;92.47;37.47;;;10.40;99.90;;;;;;5042277;28;20047;-73
2021/10/14 09:37:16;;;;;;;96.65;39.35;;;10.40;99.90;;;;;;5043900;28;20040;-72
2021/10/14 09:39:55;;;;;;;129.40;45.22;;;10.30;99.90;;;;;;5042834;28;20044;-72
2021/10/14 09:42:57;;;;;;;133.05;46.28;;;10.30;99.90;;;;;;5072815;28;20044;-72
2021/10/14 09:45:32;;;;;;;137.27;52.47;;;10.30;99.90;;;;;;5070258;28;20059;-72
2021/10/14 09:48:02;;;;;;;165.60;54.67;;;10.30;99.90;;;;;;5043910;28;20063;-73
2021/10/14 09:50:30;;;;;;;145.93;53.28;;;10.30;99.90;;;;;;5045771;28;20093;-72
2021/10/14 09:53:03;;;;;;;174.07;56.35;;;10.30;99.90;;;;;;5046318;28;20067;-75
2021/10/14 09:55:30;;;;;;;132.30;47.80;;;10.30;99.90;;;;;;5062424;28;20071;-73
2021/10/14 09:57:59;;;;;;;107.13;43.35;;;10.30;99.90;;;;;;5045905;28;20055;-72
2021/10/14 10:00:28;;;;;;;125.03;47.88;;;10.40;99.90;;;;;;5028294;28;20785;-74
2021/10/14 10:03:00;;;;;;;150.45;49.80;;;10.40;99.90;;;;;;5043638;28;20155;-73
2021/10/14 10:05:31;;;;;;;157.00;53.50;;;10.40;99.90;;;;;;5045393;28;20047;-73
2021/10/14 10:08:00;;;;;;;165.70;57.55;;;10.30;99.90;;;;;;5062730;28;20075;-74
2021/10/14 10:10:30;;;;;;;163.27;53.17;;;10.30;99.90;;;;;;5039669;28;20130;-72
2021/10/14 10:13:00;;;;;;;187.50;61.33;;;10.30;99.90;;;;;;5060456;28;20040;-73
2021/10/14 10:15:47;;;;;;;233.90;68.18;;;10.40;99.90;;;;;;5046348;28;20070;-73
2021/10/14 10:18:26;;;;;;;215.90;62.22;;;10.30;99.90;;;;;;5061801;28;20087;-73
2021/10/14 10:20:55;;;;;;;207.35;63.85;;;10.40;99.90;;;;;;5043051;28;20069;-75
2021/10/14 10:23:47;;;;;;;227.45;67.28;;;10.40;99.90;;;;;;5029131;28;20040;-74
2021/10/14 10:26:35;;;;;;;211.98;65.07;;;10.40;99.90;;;;;;5044886;28;20051;-73
2021/10/14 10:29:14;;;;;;;199.35;61.60;;;10.40;99.90;;;;;;5030249;28;20058;-75
2021/10/14 10:31:54;;;;;;;219.90;63.97;;;10.40;99.90;;;;;;5061821;28;20119;-74
2021/10/14 10:34:45;;;;;;;186.07;59.08;;;10.50;99.90;;;;;;5028702;28;20044;-75
2021/10/14 10:40:11;;;;;;;178.45;58.65;;;10.50;99.90;;;;;;5047058;28;20134;-71
2021/10/14 10:42:40;;;;;;;211.82;64.60;;;10.50;99.90;;;;;;5061351;28;20541;-73
2021/10/14 10:45:22;;;;;;;207.63;62.88;;;10.50;99.90;;;;;;5046034;28;20036;-74
2021/10/14 10:47:59;;;;;;;187.93;61.28;;;10.50;99.90;;;;;;5044569;28;20071;-73
2021/10/14 10:50:49;;;;;;;208.07;62.97;;;10.50;99.90;;;;;;5061103;28;20040;-73
2021/10/14 10:53:48;;;;;;;176.95;56.33;;;10.50;99.90;;;;;;5016671;28;20072;-74
2021/10/14 10:56:30;;;;;;;190.40;58.08;;;10.50;99.90;;;;;;5022502;28;20028;-73
2021/10/14 10:58:57;;;;;;;190.70;59.45;;;10.50;99.90;;;;;;5037803;28;20040;-74
2021/10/14 11:01:25;;;;;;;198.23;57.13;;;10.50;99.90;;;;;;5021538;28;20509;-73
2021/10/14 11:04:00;;;;;;;184.38;59.20;;;10.50;99.90;;;;;;5059532;28;20036;-73
2021/10/14 11:06:30;;;;;;;161.57;58.40;;;10.50;99.90;;;;;;5058414;28;20167;-73
2021/10/14 11:09:05;;;;;;;173.50;59.28;;;10.60;99.90;;;;;;5060672;28;20054;-72
2021/10/14 11:11:36;;;;;;;186.38;59.10;;;10.50;99.90;;;;;;5043011;28;20093;-73
2021/10/14 11:14:04;;;;;;;188.25;64.18;;;10.60;99.90;;;;;;5046800;28;20059;-73
2021/10/14 11:16:32;;;;;;;163.10;56.13;;;10.60;99.90;;;;;;5046525;28;20127;-72
2021/10/14 11:19:00;;;;;;;197.70;62.88;;;10.60;99.90;;;;;;5063471;28;20117;-73
2021/10/14 11:21:40;;;;;;;179.02;58.55;;;10.60;99.90;;;;;;5047882;28;20108;-72
2021/10/14 11:24:07;;;;;;;193.05;58.97;;;10.60;99.90;;;;;;5029430;28;20608;-72
2021/10/14 11:26:37;;;;;;;185.20;59.17;;;10.60;99.90;;;;;;5062343;28;20048;-73
2021/10/14 11:29:22;;;;;;;173.95;58.33;;;10.50;99.90;;;;;;5047085;28;20470;-73
2021/10/14 11:31:59;;;;;;;172.18;57.95;;;10.60;99.90;;;;;;5045265;28;20100;-71
2021/10/14 11:34:27;;;;;;;165.70;57.22;;;10.60;99.90;;;;;;5046707;28;20071;-73
2021/10/14 11:37:06;;;;;;;161.13;57.97;;;10.50;99.90;;;;;;5045556;28;20106;-72
2021/10/14 11:39:34;;;;;;;155.18;54.72;;;10.60;99.90;;;;;;5045287;28;20605;-73
2021/10/14 11:42:11;;;;;;;175.52;58.05;;;10.70;99.90;;;;;;5060895;28;20048;-72
2021/10/14 11:44:44;;;;;;;165.00;57.13;;;10.70;99.90;;;;;;5045609;28;20066;-72
2021/10/14 11:47:15;;;;;;;155.23;54.53;;;10.70;99.90;;;;;;5046971;28;20052;-72
2021/10/14 11:49:42;;;;;;;139.15;53.17;;;10.80;99.90;;;;;;5056977;28;20075;-71
2021/10/14 11:52:14;;;;;;;131.50;49.45;;;10.80;99.90;;;;;;5044757;28;20048;-72
2021/10/14 11:54:44;;;;;;;148.77;53.50;;;10.80;99.90;;;;;;5046013;28;20431;-72
2021/10/14 11:57:11;;;;;;;137.43;51.25;;;10.80;99.90;;;;;;5028540;28;20048;-73
2021/10/14 11:59:38;;;;;;;128.93;47.95;;;10.80;99.90;;;;;;5045225;28;20044;-72
2021/10/14 12:02:17;;;;;;;127.25;48.47;;;10.80;99.90;;;;;;5041571;28;20476;-72
2021/10/14 12:04:50;;;;;;;123.18;48.08;;;10.90;99.90;;;;;;5044579;28;20048;-73
2021/10/14 12:07:25;;;;;;;127.55;50.63;;;10.90;99.90;;;;;;5045688;28;20131;-73
2021/10/14 12:09:54;;;;;;;122.13;47.38;;;10.90;99.90;;;;;;5045038;28;20043;-72
2021/10/14 12:12:24;;;;;;;122.10;50.88;;;10.90;99.90;;;;;;5045692;28;20044;-73
2021/10/14 12:15:10;;;;;;;119.97;46.08;;;10.90;99.90;;;;;;5028533;28;20126;-72
2021/10/14 12:17:42;;;;;;;113.70;48.30;;;11.00;99.90;;;;;;5063289;28;20075;-72
2021/10/14 12:20:13;;;;;;;118.43;50.38;;;11.00;99.90;;;;;;5064828;28;20134;-71
2021/10/14 12:22:42;;;;;;;111.90;49.78;;;11.00;99.90;;;;;;5082946;28;20066;-73
2021/10/14 12:25:09;;;;;;;109.15;48.10;;;11.00;99.90;;;;;;5043582;28;20051;-72
2021/10/14 12:27:45;;;;;;;111.57;45.85;;;11.00;99.90;;;;;;5047114;28;20039;-71
2021/10/14 12:30:18;;;;;;;110.72;48.25;;;11.00;99.90;;;;;;5044913;28;20491;-72
2021/10/14 12:32:46;;;;;;;103.25;43.83;;;11.10;99.90;;;;;;5030357;28;20035;-72
2021/10/14 12:35:13;;;;;;;108.82;48.03;;;11.00;99.90;;;;;;5046092;28;20038;-72
2021/10/14 12:37:41;;;;;;;111.40;47.83;;;11.00;99.90;;;;;;5066822;28;20055;-73
2021/10/14 12:40:22;;;;;;;114.40;50.40;;;11.00;99.90;;;;;;5045016;28;20714;-72
2021/10/14 12:48:38;;;;;;;92.03;43.30;;;11.10;99.90;;;;;;5061972;28;20064;-72